Time;durP1;ratioP1;P1;durP2;ratioP2;P2;SDS_P1;SDS_P2;PMS_P1;PMS_P2;Temp;Humidity;BMP_temperature;BMP_pressure;BME280_temperature;BME280_humidity;BME280_pressure;Samples;Min_cycle;Max_cycle;Signal;HPM_P1;HPM_P2
2021/01/08 00:00:49;;;;;;;13.73;5.63;;;-0.20;99.90;;;;;;5070353;28;20453;-52
2021/01/08 00:03:16;;;;;;;11.53;5.40;;;0.00;99.90;;;;;;5070500;28;20980;-52
2021/01/08 00:05:43;;;;;;;9.33;4.70;;;0.30;99.90;;;;;;5070718;28;20503;-52
2021/01/08 00:08:10;;;;;;;8.73;4.90;;;0.30;99.90;;;;;;5070269;28;21016;-51
2021/01/08 00:10:36;;;;;;;9.40;4.80;;;0.20;99.90;;;;;;5069390;28;20540;-52
2021/01/08 00:13:03;;;;;;;11.80;6.10;;;0.20;99.90;;;;;;5070133;28;20530;-51
2021/01/08 00:15:30;;;;;;;12.23;4.93;;;0.30;99.90;;;;;;5070439;28;20459;-51
2021/01/08 00:17:56;;;;;;;12.10;5.53;;;0.20;99.90;;;;;;5070394;28;20469;-51
2021/01/08 00:20:23;;;;;;;11.87;4.93;;;0.00;99.90;;;;;;5070332;28;20490;-51
2021/01/08 00:22:50;;;;;;;10.80;5.03;;;-0.10;99.90;;;;;;5069836;28;20508;-51
2021/01/08 00:25:17;;;;;;;10.20;5.00;;;-0.10;99.90;;;;;;5069995;28;20449;-51
2021/01/08 00:27:43;;;;;;;9.80;4.53;;;-0.20;99.90;;;;;;5069804;28;20564;-52
2021/01/08 00:30:11;;;;;;;9.50;4.80;;;-0.20;99.90;;;;;;5069743;28;20861;-52
2021/01/08 00:32:38;;;;;;;9.17;4.60;;;0.10;99.90;;;;;;5069458;28;20451;-52
2021/01/08 00:35:05;;;;;;;9.77;5.20;;;0.10;99.90;;;;;;5070277;28;20459;-52
2021/01/08 00:37:34;;;;;;;10.33;4.87;;;0.20;99.90;;;;;;5069590;28;20473;-52
2021/01/08 00:40:01;;;;;;;10.07;4.80;;;0.10;99.90;;;;;;5069911;28;20453;-52
2021/01/08 00:42:28;;;;;;;8.43;4.70;;;0.10;99.90;;;;;;5069548;28;20803;-52
2021/01/08 00:44:54;;;;;;;10.03;5.00;;;0.30;99.90;;;;;;5069653;28;20554;-53
2021/01/08 00:47:21;;;;;;;9.50;4.93;;;0.30;99.90;;;;;;5069832;28;20990;-52
2021/01/08 00:49:47;;;;;;;10.27;4.90;;;0.30;99.90;;;;;;5069802;28;20879;-52
2021/01/08 00:52:14;;;;;;;11.23;4.77;;;0.30;99.90;;;;;;5069692;28;20453;-52
2021/01/08 00:54:43;;;;;;;8.00;4.60;;;0.40;99.90;;;;;;5069888;28;20455;-52
2021/01/08 00:57:11;;;;;;;14.70;4.87;;;0.50;99.90;;;;;;5069439;28;20477;-52
2021/01/08 00:59:37;;;;;;;10.40;5.20;;;0.50;99.90;;;;;;5066296;28;20449;-52
2021/01/08 01:02:04;;;;;;;9.50;4.73;;;0.50;99.90;;;;;;5069893;28;20453;-52
2021/01/08 01:04:30;;;;;;;8.00;4.37;;;0.20;99.90;;;;;;5069797;28;20457;-52
2021/01/08 01:06:57;;;;;;;7.23;4.00;;;0.20;99.90;;;;;;5069011;28;20499;-53
2021/01/08 01:09:23;;;;;;;8.00;4.13;;;0.10;99.90;;;;;;5069559;28;20932;-52
2021/01/08 01:11:50;;;;;;;8.63;4.60;;;0.10;99.90;;;;;;5069247;28;20457;-52
2021/01/08 01:14:18;;;;;;;13.03;5.17;;;-0.10;99.90;;;;;;5069242;28;20461;-52
2021/01/08 01:16:44;;;;;;;7.43;3.83;;;0.10;99.90;;;;;;5069076;28;20500;-52
2021/01/08 01:19:11;;;;;;;10.50;4.60;;;0.00;99.90;;;;;;5069007;28;20452;-53
2021/01/08 01:21:37;;;;;;;7.03;4.07;;;-0.10;99.90;;;;;;5069527;28;20495;-52
2021/01/08 01:24:06;;;;;;;8.30;4.47;;;0.10;99.90;;;;;;5069243;28;20457;-52
2021/01/08 01:26:34;;;;;;;8.10;4.40;;;0.20;99.90;;;;;;5069248;28;20967;-52
2021/01/08 01:29:00;;;;;;;8.47;3.87;;;0.20;99.90;;;;;;5069364;28;20644;-53
2021/01/08 01:31:28;;;;;;;14.70;6.10;;;0.10;99.90;;;;;;5069343;28;20502;-52
2021/01/08 01:33:54;;;;;;;8.90;4.57;;;0.20;99.90;;;;;;5069207;28;20457;-53
2021/01/08 01:36:21;;;;;;;9.80;5.00;;;0.20;99.90;;;;;;5068782;28;20452;-52
2021/01/08 01:38:48;;;;;;;8.90;4.43;;;0.10;99.90;;;;;;5069127;28;20829;-52
2021/01/08 01:41:14;;;;;;;11.23;4.30;;;0.10;99.90;;;;;;5069892;28;20451;-52
2021/01/08 01:43:41;;;;;;;7.43;4.20;;;0.10;99.90;;;;;;5073161;28;20477;-52
2021/01/08 01:46:07;;;;;;;9.87;3.70;;;0.20;99.90;;;;;;5073080;28;20451;-53
2021/01/08 01:48:35;;;;;;;8.97;4.07;;;0.20;99.90;;;;;;5072478;28;20502;-53
2021/01/08 01:51:02;;;;;;;8.27;3.80;;;0.00;99.90;;;;;;5073138;28;20453;-53
2021/01/08 01:53:28;;;;;;;8.47;4.00;;;-0.10;99.90;;;;;;5072896;28;20957;-53
2021/01/08 01:55:56;;;;;;;9.97;4.83;;;-0.10;99.90;;;;;;5073076;28;20825;-53
2021/01/08 01:58:23;;;;;;;6.87;3.10;;;0.00;99.90;;;;;;5073174;28;20471;-53
2021/01/08 02:00:50;;;;;;;8.53;4.43;;;-0.10;99.90;;;;;;5072510;28;20448;-53
2021/01/08 02:03:23;;;;;;;6.93;3.97;;;-0.10;99.90;;;;;;5072140;28;20453;-53
2021/01/08 02:05:58;;;;;;;9.07;4.20;;;-0.10;99.90;;;;;;5072761;28;20523;-53
2021/01/08 02:08:27;;;;;;;7.07;4.00;;;-0.20;99.90;;;;;;5072697;28;20658;-53
2021/01/08 02:10:58;;;;;;;7.70;4.37;;;-0.10;99.90;;;;;;5072661;28;20464;-54
2021/01/08 02:13:30;;;;;;;6.30;3.93;;;-0.10;99.90;;;;;;5072969;28;20962;-54
2021/01/08 02:15:58;;;;;;;10.77;5.07;;;-0.10;99.90;;;;;;5072409;28;20453;-53
2021/01/08 02:18:27;;;;;;;6.30;3.67;;;0.00;99.90;;;;;;5072031;28;20998;-53
2021/01/08 02:20:59;;;;;;;8.70;4.73;;;-0.20;99.90;;;;;;5072073;28;20966;-53
2021/01/08 02:23:33;;;;;;;10.40;5.00;;;0.00;99.90;;;;;;5072816;28;20478;-53
2021/01/08 02:26:02;;;;;;;8.60;4.67;;;0.00;99.90;;;;;;5072966;28;20524;-53
2021/01/08 02:28:29;;;;;;;9.37;4.73;;;0.10;99.90;;;;;;5071814;28;20469;-53
2021/01/08 02:30:56;;;;;;;6.67;3.90;;;0.00;99.90;;;;;;5071909;28;20463;-53
2021/01/08 02:33:24;;;;;;;8.73;4.17;;;0.00;99.90;;;;;;5072577;28;20449;-53
2021/01/08 02:35:51;;;;;;;7.40;4.30;;;0.00;99.90;;;;;;5064675;28;20451;-54
2021/01/08 02:38:20;;;;;;;9.53;4.43;;;0.00;99.90;;;;;;5071153;28;20483;-53
2021/01/08 02:40:49;;;;;;;10.00;4.57;;;0.20;99.90;;;;;;5071771;28;20451;-53
2021/01/08 02:43:22;;;;;;;7.00;4.00;;;0.00;99.90;;;;;;5072037;28;20460;-54
2021/01/08 02:45:49;;;;;;;7.97;4.47;;;-0.10;99.90;;;;;;5071801;28;20494;-53
2021/01/08 02:48:16;;;;;;;7.10;4.10;;;-0.20;99.90;;;;;;5072088;28;20473;-53
2021/01/08 02:50:43;;;;;;;6.87;3.80;;;-0.20;99.90;;;;;;5071645;28;20799;-53
2021/01/08 02:53:13;;;;;;;8.05;4.60;;;-0.10;99.90;;;;;;5071001;28;20845;-53
2021/01/08 02:55:45;;;;;;;6.50;3.80;;;0.00;99.90;;;;;;5071844;28;20213;-53
2021/01/08 02:58:13;;;;;;;6.73;3.47;;;0.00;99.90;;;;;;5072333;28;20466;-53
2021/01/08 03:00:41;;;;;;;7.83;3.70;;;0.10;99.90;;;;;;5072161;28;20489;-53
2021/01/08 03:03:08;;;;;;;7.47;3.80;;;-0.20;99.90;;;;;;5072337;28;20531;-53
2021/01/08 03:05:35;;;;;;;7.23;3.80;;;-0.30;99.90;;;;;;5072159;28;20660;-53
2021/01/08 03:08:02;;;;;;;5.50;3.10;;;-0.30;99.90;;;;;;5071622;28;20512;-53
2021/01/08 03:10:29;;;;;;;7.37;3.77;;;-0.20;99.90;;;;;;5071563;28;20487;-53
2021/01/08 03:12:58;;;;;;;9.80;3.70;;;-0.30;99.90;;;;;;5072000;28;20498;-53
2021/01/08 03:15:25;;;;;;;6.50;3.23;;;-0.40;99.90;;;;;;5071704;28;20448;-53
2021/01/08 03:17:52;;;;;;;5.90;3.37;;;-0.40;99.90;;;;;;5071963;28;20474;-53
2021/01/08 03:20:19;;;;;;;9.50;4.33;;;-0.50;99.90;;;;;;5071897;28;21192;-53
2021/01/08 03:22:46;;;;;;;8.63;3.30;;;-0.50;99.90;;;;;;5071463;28;20862;-53
2021/01/08 03:25:13;;;;;;;8.23;3.47;;;-0.50;99.90;;;;;;5063770;28;20456;-53
2021/01/08 03:27:39;;;;;;;6.50;3.80;;;-0.40;99.90;;;;;;5071618;28;20463;-53
2021/01/08 03:30:08;;;;;;;8.70;4.00;;;-0.40;99.90;;;;;;5070744;28;20476;-53
2021/01/08 03:32:34;;;;;;;6.53;3.60;;;-0.30;99.90;;;;;;5071463;28;20449;-53
2021/01/08 03:35:03;;;;;;;6.43;3.50;;;-0.30;99.90;;;;;;5071385;28;20830;-53
2021/01/08 03:37:29;;;;;;;5.83;3.23;;;-0.50;99.90;;;;;;5071169;28;20468;-53
2021/01/08 03:39:56;;;;;;;7.63;3.00;;;-0.40;99.90;;;;;;5071356;28;20448;-53
2021/01/08 03:42:22;;;;;;;5.67;3.40;;;-0.50;99.90;;;;;;5071268;28;20462;-53
2021/01/08 03:44:49;;;;;;;7.37;3.67;;;-0.40;99.90;;;;;;5071870;28;20450;-53
2021/01/08 03:47:15;;;;;;;7.40;3.93;;;-0.50;99.90;;;;;;5070154;28;20911;-53
2021/01/08 03:49:42;;;;;;;7.67;4.03;;;-0.40;99.90;;;;;;5071034;28;21048;-53
2021/01/08 03:52:09;;;;;;;4.60;2.87;;;-0.50;99.90;;;;;;5070645;28;20858;-53
2021/01/08 03:54:36;;;;;;;7.73;3.60;;;-0.60;99.90;;;;;;5071140;28;20449;-53
2021/01/08 03:57:03;;;;;;;6.17;3.70;;;-0.50;99.90;;;;;;5071126;28;20473;-53
2021/01/08 03:59:30;;;;;;;11.23;4.07;;;-0.40;99.90;;;;;;5070534;28;20880;-53
2021/01/08 04:01:57;;;;;;;7.13;3.50;;;-0.30;99.90;;;;;;5070675;28;20451;-53
2021/01/08 04:04:24;;;;;;;5.17;3.57;;;-0.30;99.90;;;;;;5069998;28;21178;-53
2021/01/08 04:06:50;;;;;;;6.77;3.50;;;-0.30;99.90;;;;;;5069174;28;20501;-53
2021/01/08 04:09:18;;;;;;;6.50;3.90;;;-0.30;99.90;;;;;;5070702;28;21226;-53
2021/01/08 04:11:45;;;;;;;8.20;4.30;;;-0.40;99.90;;;;;;5062888;28;20488;-54
2021/01/08 04:14:12;;;;;;;6.60;3.20;;;-0.40;99.90;;;;;;5070880;28;20460;-53
2021/01/08 04:16:40;;;;;;;6.43;3.60;;;-0.40;99.90;;;;;;5070378;28;20455;-54
2021/01/08 04:19:10;;;;;;;6.30;3.23;;;-0.30;99.90;;;;;;5070318;28;20956;-54
2021/01/08 04:21:38;;;;;;;7.10;3.87;;;-0.30;99.90;;;;;;5070404;28;20457;-54
2021/01/08 04:24:08;;;;;;;7.10;3.53;;;-0.40;99.90;;;;;;5070849;28;20817;-53
2021/01/08 04:26:35;;;;;;;8.40;3.50;;;-0.30;99.90;;;;;;5070383;28;20455;-53
2021/01/08 04:29:02;;;;;;;7.83;3.20;;;-0.50;99.90;;;;;;5070216;28;20479;-53
2021/01/08 04:31:28;;;;;;;6.40;3.10;;;-0.50;99.90;;;;;;5069993;28;20499;-54
2021/01/08 04:33:55;;;;;;;6.83;3.70;;;-0.50;99.90;;;;;;5070168;28;20455;-53
2021/01/08 04:36:21;;;;;;;5.67;3.00;;;-0.50;99.90;;;;;;5070697;28;20463;-53
2021/01/08 04:38:48;;;;;;;7.17;3.60;;;-0.40;99.90;;;;;;5069800;28;20490;-53
2021/01/08 04:41:16;;;;;;;5.10;3.30;;;-0.50;99.90;;;;;;5070747;28;20560;-54
2021/01/08 04:43:43;;;;;;;4.73;2.90;;;-0.60;99.90;;;;;;5070276;28;20447;-53
2021/01/08 04:46:14;;;;;;;5.60;3.13;;;-0.70;99.90;;;;;;5070383;28;20485;-53
2021/01/08 04:48:42;;;;;;;5.67;3.10;;;-0.70;99.90;;;;;;5070041;28;20524;-53
2021/01/08 04:51:12;;;;;;;7.20;3.53;;;-0.60;99.90;;;;;;5070459;28;20443;-53
2021/01/08 04:53:38;;;;;;;6.87;3.20;;;-0.50;99.90;;;;;;5070433;28;20443;-53
2021/01/08 04:56:08;;;;;;;8.77;3.87;;;-0.70;99.90;;;;;;5069896;28;21147;-53
2021/01/08 04:58:34;;;;;;;7.63;3.87;;;-0.70;99.90;;;;;;5069864;28;20466;-53
2021/01/08 05:01:03;;;;;;;5.53;3.13;;;-0.40;99.90;;;;;;5070000;28;20451;-53
2021/01/08 05:03:30;;;;;;;9.07;3.87;;;-0.30;99.90;;;;;;5070177;28;21157;-54
2021/01/08 05:05:57;;;;;;;6.50;3.37;;;-0.60;99.90;;;;;;5069880;28;20447;-53
2021/01/08 05:08:24;;;;;;;6.80;3.60;;;-0.50;99.90;;;;;;5069579;28;20857;-53
2021/01/08 05:10:50;;;;;;;4.67;2.93;;;-0.60;99.90;;;;;;5070408;28;20479;-53
2021/01/08 05:13:17;;;;;;;6.37;3.30;;;-0.40;99.90;;;;;;5070312;28;20455;-54
2021/01/08 05:15:51;;;;;;;6.03;3.00;;;-0.30;99.90;;;;;;5070633;28;20465;-53
2021/01/08 05:18:20;;;;;;;5.00;3.13;;;-0.50;99.90;;;;;;5073935;28;20926;-53
2021/01/08 05:20:49;;;;;;;4.40;2.70;;;-0.40;99.90;;;;;;5074099;28;20997;-53
2021/01/08 05:23:16;;;;;;;5.23;2.90;;;-0.50;99.90;;;;;;5074028;28;20443;-53
2021/01/08 05:25:45;;;;;;;4.97;2.90;;;-0.50;99.90;;;;;;5074234;28;20497;-53
2021/01/08 05:28:14;;;;;;;7.00;3.43;;;-0.40;99.90;;;;;;5073962;28;20467;-53
2021/01/08 05:30:42;;;;;;;6.20;3.60;;;-0.50;99.90;;;;;;5073565;28;20483;-53
2021/01/08 05:33:12;;;;;;;6.23;3.53;;;-0.40;99.90;;;;;;5074015;28;20515;-54
2021/01/08 05:35:40;;;;;;;7.07;3.10;;;-0.30;99.90;;;;;;5077108;28;20448;-53
2021/01/08 05:38:08;;;;;;;7.80;3.80;;;-0.30;99.90;;;;;;5077694;28;20478;-53
2021/01/08 05:40:38;;;;;;;8.27;3.67;;;-0.30;99.90;;;;;;5077040;28;20451;-53
2021/01/08 05:43:05;;;;;;;5.90;3.73;;;-0.40;99.90;;;;;;5077460;28;20443;-53
2021/01/08 05:45:32;;;;;;;9.20;3.90;;;-0.40;99.90;;;;;;5076351;28;20440;-53
2021/01/08 05:48:00;;;;;;;9.97;3.40;;;-0.40;99.90;;;;;;5077422;28;20472;-53
2021/01/08 05:50:28;;;;;;;5.63;3.30;;;-0.40;99.90;;;;;;5077187;28;20485;-53
2021/01/08 05:53:03;;;;;;;6.33;3.60;;;-0.50;99.90;;;;;;5076403;28;20473;-53
2021/01/08 05:55:34;;;;;;;5.40;3.57;;;-0.40;99.90;;;;;;5074212;28;20447;-53
2021/01/08 05:58:00;;;;;;;6.80;3.23;;;-0.40;99.90;;;;;;5077169;28;20513;-53
2021/01/08 06:00:28;;;;;;;5.90;3.27;;;-0.50;99.90;;;;;;5075259;28;20459;-52
2021/01/08 06:02:56;;;;;;;6.60;3.23;;;-0.40;99.90;;;;;;5076625;28;20445;-53
2021/01/08 06:05:26;;;;;;;6.90;3.40;;;-0.40;99.90;;;;;;5077330;28;20453;-52
2021/01/08 06:07:57;;;;;;;7.00;3.10;;;-0.50;99.90;;;;;;5077016;28;20479;-53
2021/01/08 06:10:26;;;;;;;8.27;3.23;;;-0.30;99.90;;;;;;5077046;28;20477;-53
2021/01/08 06:12:54;;;;;;;6.27;3.23;;;-0.30;99.90;;;;;;5077337;28;20443;-52
2021/01/08 06:15:21;;;;;;;5.87;3.10;;;-0.30;99.90;;;;;;5076742;28;20451;-52
2021/01/08 06:17:48;;;;;;;5.10;2.80;;;-0.30;99.90;;;;;;5073666;28;20475;-52
2021/01/08 06:20:15;;;;;;;5.67;2.90;;;-0.40;99.90;;;;;;5072867;28;20596;-52
2021/01/08 06:22:43;;;;;;;5.60;3.53;;;-0.40;99.90;;;;;;5065658;28;20486;-52
2021/01/08 06:25:11;;;;;;;6.17;3.27;;;-0.40;99.90;;;;;;5072298;28;20492;-53
2021/01/08 06:27:43;;;;;;;6.90;3.10;;;-0.40;99.90;;;;;;5070505;28;20496;-53
2021/01/08 06:30:18;;;;;;;7.70;3.37;;;-0.30;99.90;;;;;;5072621;28;20475;-53
2021/01/08 06:32:48;;;;;;;5.53;3.47;;;-0.30;99.90;;;;;;5072989;28;20463;-52
2021/01/08 06:35:17;;;;;;;8.70;3.90;;;-0.40;99.90;;;;;;5072975;28;20663;-52
2021/01/08 06:37:44;;;;;;;6.70;3.17;;;-0.40;99.90;;;;;;5072655;28;20564;-53
2021/01/08 06:40:13;;;;;;;7.63;3.27;;;-0.40;99.90;;;;;;5072588;28;20514;-53
2021/01/08 06:42:46;;;;;;;6.47;3.30;;;-0.30;99.90;;;;;;5072627;28;20552;-52
2021/01/08 06:45:15;;;;;;;10.70;4.70;;;-0.10;99.90;;;;;;5072950;28;20969;-52
2021/01/08 06:47:46;;;;;;;11.40;4.60;;;-0.20;99.90;;;;;;5072658;28;20472;-52
2021/01/08 06:50:19;;;;;;;8.33;4.10;;;-0.30;99.90;;;;;;5072425;28;20479;-52
2021/01/08 06:52:47;;;;;;;6.03;3.10;;;-0.20;99.90;;;;;;5072454;28;20465;-52
2021/01/08 06:55:21;;;;;;;5.30;2.90;;;-0.10;99.90;;;;;;5072877;28;20457;-52
2021/01/08 06:57:50;;;;;;;6.03;2.70;;;-0.20;99.90;;;;;;5072944;28;20498;-53
2021/01/08 07:00:21;;;;;;;5.47;2.83;;;-0.10;99.90;;;;;;5064468;28;20443;-53
2021/01/08 07:02:55;;;;;;;5.27;3.03;;;-0.20;99.90;;;;;;5072497;28;20492;-53
2021/01/08 07:05:21;;;;;;;6.83;3.13;;;-0.20;99.90;;;;;;5072310;28;20989;-53
2021/01/08 07:07:50;;;;;;;6.13;3.07;;;-0.20;99.90;;;;;;5071153;28;20491;-54
2021/01/08 07:10:18;;;;;;;7.50;3.60;;;-0.20;99.90;;;;;;5070793;28;20485;-52
2021/01/08 07:12:45;;;;;;;5.40;3.10;;;-0.20;99.90;;;;;;5072129;28;20495;-53
2021/01/08 07:15:13;;;;;;;6.30;3.17;;;-0.20;99.90;;;;;;5072056;28;20848;-53
2021/01/08 07:17:40;;;;;;;8.47;3.40;;;-0.20;99.90;;;;;;5071859;28;20472;-53
2021/01/08 07:20:08;;;;;;;4.33;2.47;;;-0.20;99.90;;;;;;5071644;28;20477;-53
2021/01/08 07:22:38;;;;;;;6.87;2.63;;;-0.40;99.90;;;;;;5071883;28;21013;-53
2021/01/08 07:25:07;;;;;;;6.83;3.33;;;-0.40;99.90;;;;;;5072066;28;20523;-53
2021/01/08 07:27:35;;;;;;;5.53;3.20;;;-0.30;99.90;;;;;;5071759;28;20468;-53
2021/01/08 07:30:05;;;;;;;6.13;2.83;;;-0.10;99.90;;;;;;5071478;28;21059;-53
2021/01/08 07:32:36;;;;;;;9.53;3.07;;;0.00;99.90;;;;;;5071502;28;20880;-53
2021/01/08 07:35:19;;;;;;;3.97;2.60;;;-0.10;99.90;;;;;;5071883;28;20901;-53
2021/01/08 07:38:04;;;;;;;5.90;3.30;;;-0.10;99.90;;;;;;5071295;28;20473;-54
2021/01/08 07:40:33;;;;;;;5.23;2.90;;;-0.20;99.90;;;;;;5070452;28;20498;-53
2021/01/08 07:43:02;;;;;;;8.23;3.43;;;-0.20;99.90;;;;;;5063976;28;20473;-53
2021/01/08 07:45:48;;;;;;;4.60;2.93;;;-0.20;99.90;;;;;;5071749;28;20445;-53
2021/01/08 07:48:25;;;;;;;7.60;3.20;;;-0.20;99.90;;;;;;5065201;28;21068;-53
2021/01/08 07:50:59;;;;;;;6.67;2.90;;;-0.30;99.90;;;;;;5070997;28;20517;-54
2021/01/08 07:53:48;;;;;;;7.27;3.20;;;-0.30;99.90;;;;;;5072099;28;20460;-53
2021/01/08 07:56:16;;;;;;;6.10;3.20;;;-0.30;99.90;;;;;;5063947;28;20460;-53
2021/01/08 07:58:44;;;;;;;5.73;3.20;;;-0.20;99.90;;;;;;5071094;28;20468;-52
2021/01/08 08:01:12;;;;;;;6.27;3.47;;;-0.30;99.90;;;;;;5070745;28;20456;-53
2021/01/08 08:03:40;;;;;;;6.37;3.43;;;0.10;99.90;;;;;;5071029;28;21030;-53
2021/01/08 08:06:08;;;;;;;5.47;3.10;;;0.20;99.90;;;;;;5071061;28;20445;-52
2021/01/08 08:08:40;;;;;;;6.80;4.13;;;0.10;99.90;;;;;;5070790;28;21004;-53
2021/01/08 08:11:12;;;;;;;4.30;2.60;;;-0.10;99.90;;;;;;5070827;28;20583;-53
2021/01/08 08:13:38;;;;;;;11.30;3.13;;;0.00;99.90;;;;;;5070957;28;20451;-53
2021/01/08 08:16:05;;;;;;;6.93;3.50;;;0.10;99.90;;;;;;5070699;28;20451;-53
2021/01/08 08:18:33;;;;;;;6.03;3.10;;;0.00;99.90;;;;;;5070944;28;20476;-54
2021/01/08 08:21:08;;;;;;;8.70;3.23;;;0.10;99.90;;;;;;5070943;28;20457;-54
2021/01/08 08:23:34;;;;;;;17.03;3.43;;;0.10;99.90;;;;;;5069840;28;20452;-54
2021/01/08 08:26:01;;;;;;;6.10;3.20;;;0.20;99.90;;;;;;5070453;28;20445;-54
2021/01/08 08:28:27;;;;;;;6.87;3.63;;;0.30;99.90;;;;;;5070157;28;20492;-54
2021/01/08 08:30:54;;;;;;;7.97;3.77;;;0.30;99.90;;;;;;5070404;28;20476;-53
2021/01/08 08:33:22;;;;;;;6.37;3.43;;;0.30;99.90;;;;;;5067850;28;20540;-54
2021/01/08 08:35:50;;;;;;;5.30;3.33;;;0.10;99.90;;;;;;5063549;28;20482;-54
2021/01/08 08:38:16;;;;;;;5.93;3.10;;;0.20;99.90;;;;;;5070403;28;20472;-54
2021/01/08 08:40:43;;;;;;;7.50;3.73;;;0.20;99.90;;;;;;5070311;28;20446;-54
2021/01/08 08:43:18;;;;;;;6.20;2.93;;;0.10;99.90;;;;;;5070430;28;20482;-54
2021/01/08 08:45:44;;;;;;;6.77;3.60;;;0.20;99.90;;;;;;5070174;28;21008;-54
2021/01/08 08:48:11;;;;;;;6.47;3.40;;;0.30;99.90;;;;;;5070371;28;20491;-53
2021/01/08 08:50:43;;;;;;;8.73;4.37;;;0.30;99.90;;;;;;5068736;28;21009;-54
2021/01/08 08:53:14;;;;;;;10.10;4.33;;;0.50;99.90;;;;;;5070026;28;20540;-53
2021/01/08 08:55:42;;;;;;;8.23;3.67;;;0.90;99.90;;;;;;5069303;28;20444;-53
2021/01/08 08:58:10;;;;;;;9.97;3.80;;;1.00;99.90;;;;;;5070533;28;20470;-53
2021/01/08 09:00:38;;;;;;;7.50;3.37;;;1.00;99.90;;;;;;5070282;28;20821;-53
2021/01/08 09:03:22;;;;;;;4.87;3.00;;;1.00;99.90;;;;;;5070616;28;20458;-54
2021/01/08 09:05:50;;;;;;;7.37;3.60;;;1.20;99.90;;;;;;5069893;28;20457;-53
2021/01/08 09:08:20;;;;;;;7.38;4.80;;;1.20;99.90;;;;;;5069799;28;21117;-53
2021/01/08 09:11:10;;;;;;;6.87;4.17;;;1.30;99.90;;;;;;5070022;28;20573;-54
2021/01/08 09:13:50;;;;;;;6.57;3.20;;;1.40;99.90;;;;;;5070612;28;21023;-54
2021/01/08 09:16:25;;;;;;;6.17;3.67;;;1.60;99.90;;;;;;5070240;28;20442;-54
2021/01/08 09:19:00;;;;;;;10.70;3.73;;;1.70;99.90;;;;;;5070120;28;20453;-54
2021/01/08 09:21:31;;;;;;;8.43;4.30;;;1.60;99.90;;;;;;5062682;28;20488;-54
2021/01/08 09:24:03;;;;;;;5.97;3.70;;;1.70;99.90;;;;;;5070180;28;20450;-54
2021/01/08 09:26:30;;;;;;;8.40;4.00;;;1.80;99.90;;;;;;5062121;28;20450;-54
2021/01/08 09:28:57;;;;;;;6.00;3.73;;;1.80;99.90;;;;;;5069671;28;20451;-54
2021/01/08 09:31:38;;;;;;;6.70;3.60;;;2.10;99.90;;;;;;5070126;28;20541;-54
2021/01/08 09:34:06;;;;;;;4.60;3.00;;;2.00;99.90;;;;;;5070208;28;20599;-54
2021/01/08 09:36:34;;;;;;;3.70;2.43;;;1.80;99.90;;;;;;5061699;28;20473;-54
2021/01/08 09:39:08;;;;;;;7.67;3.10;;;1.60;99.90;;;;;;5069861;28;20450;-54
2021/01/08 09:41:36;;;;;;;6.63;3.10;;;1.60;99.90;;;;;;5069968;28;20456;-54
2021/01/08 09:44:07;;;;;;;6.37;3.90;;;1.70;99.90;;;;;;5069814;28;20449;-54
2021/01/08 09:46:52;;;;;;;5.00;3.47;;;1.70;99.90;;;;;;5069814;28;20844;-54
2021/01/08 09:49:19;;;;;;;8.70;3.70;;;1.80;99.90;;;;;;5069550;28;20507;-54
2021/01/08 09:51:45;;;;;;;6.37;3.97;;;1.90;99.90;;;;;;5069933;28;20456;-54
2021/01/08 09:54:13;;;;;;;7.57;4.43;;;1.90;99.90;;;;;;5069844;28;21074;-54
2021/01/08 09:56:39;;;;;;;7.87;3.70;;;2.00;99.90;;;;;;5069673;28;20457;-55
2021/01/08 09:59:13;;;;;;;6.00;3.70;;;2.10;99.90;;;;;;5069908;28;20489;-55
2021/01/08 10:01:52;;;;;;;7.73;4.60;;;2.30;99.90;;;;;;5069974;28;20534;-55
2021/01/08 10:04:29;;;;;;;7.70;4.23;;;2.30;99.90;;;;;;5073631;28;20454;-55
2021/01/08 10:07:00;;;;;;;11.67;5.40;;;2.30;99.90;;;;;;5073466;28;20477;-55
2021/01/08 10:09:28;;;;;;;8.87;5.50;;;2.40;99.90;;;;;;5073040;28;20486;-55
2021/01/08 10:11:58;;;;;;;12.37;5.30;;;2.50;99.90;;;;;;5073433;28;20462;-55
2021/01/08 10:14:30;;;;;;;8.10;4.77;;;2.40;99.90;;;;;;5073218;28;20452;-55
2021/01/08 10:17:08;;;;;;;11.37;4.83;;;2.20;99.90;;;;;;5065754;28;20557;-55
2021/01/08 10:19:35;;;;;;;10.17;5.77;;;2.20;99.90;;;;;;5073070;28;20447;-55
2021/01/08 10:22:02;;;;;;;8.57;5.00;;;2.10;99.90;;;;;;5072644;28;20446;-55
2021/01/08 10:24:30;;;;;;;8.80;4.80;;;2.40;99.90;;;;;;5072856;28;20850;-55
2021/01/08 10:26:56;;;;;;;7.70;3.90;;;2.40;99.90;;;;;;5065181;28;20473;-55
2021/01/08 10:29:31;;;;;;;6.57;3.70;;;2.50;99.90;;;;;;5072662;28;20458;-55
2021/01/08 10:31:57;;;;;;;7.00;3.97;;;2.50;99.90;;;;;;5065490;28;20452;-55
2021/01/08 10:34:24;;;;;;;6.60;3.70;;;2.30;99.90;;;;;;5073045;28;20496;-55
2021/01/08 10:36:51;;;;;;;9.53;3.50;;;2.10;99.90;;;;;;5072714;28;20474;-55
2021/01/08 10:39:17;;;;;;;8.30;5.10;;;2.10;99.90;;;;;;5065858;28;20442;-55
2021/01/08 10:41:45;;;;;;;7.83;4.47;;;2.10;99.90;;;;;;5072113;28;20200;-55
2021/01/08 10:44:12;;;;;;;8.30;4.20;;;2.20;99.90;;;;;;5072386;28;20455;-54
2021/01/08 10:46:38;;;;;;;8.20;4.43;;;2.40;99.90;;;;;;5071810;28;20484;-54
2021/01/08 10:49:06;;;;;;;10.07;4.87;;;2.50;99.90;;;;;;5072087;28;20447;-54
2021/01/08 10:51:32;;;;;;;12.80;4.43;;;2.70;99.90;;;;;;5071962;28;20470;-55
2021/01/08 10:53:59;;;;;;;8.40;4.67;;;2.70;99.90;;;;;;5071444;28;20869;-55
2021/01/08 10:56:29;;;;;;;9.63;5.00;;;2.70;99.90;;;;;;5072054;28;20537;-55
2021/01/08 10:58:57;;;;;;;8.33;4.13;;;2.60;99.90;;;;;;5071868;28;20519;-55
2021/01/08 11:01:23;;;;;;;9.60;4.23;;;2.70;99.90;;;;;;5071711;28;20439;-55
2021/01/08 11:03:50;;;;;;;9.10;4.50;;;2.60;99.90;;;;;;5071748;28;20975;-54
2021/01/08 11:06:17;;;;;;;9.70;4.07;;;2.50;99.90;;;;;;5071745;28;20458;-54
2021/01/08 11:08:44;;;;;;;6.57;4.33;;;2.60;99.90;;;;;;5072065;28;20466;-55
2021/01/08 11:11:11;;;;;;;7.40;4.90;;;2.60;99.90;;;;;;5071454;28;21007;-54
2021/01/08 11:13:37;;;;;;;9.87;4.47;;;2.70;99.90;;;;;;5071470;28;20447;-55
2021/01/08 11:16:06;;;;;;;10.00;4.80;;;2.80;99.90;;;;;;5071889;28;20446;-55
2021/01/08 11:18:32;;;;;;;6.33;4.07;;;2.90;99.90;;;;;;5071558;28;20482;-54
2021/01/08 11:20:59;;;;;;;6.60;4.10;;;2.90;99.90;;;;;;5071473;28;20492;-54
2021/01/08 11:23:26;;;;;;;10.20;4.23;;;3.00;99.90;;;;;;5071127;28;20439;-54
2021/01/08 11:25:52;;;;;;;5.40;4.03;;;2.80;99.90;;;;;;5071653;28;20450;-54
2021/01/08 11:28:19;;;;;;;7.27;4.13;;;2.90;99.90;;;;;;5071614;28;20463;-55
2021/01/08 11:30:45;;;;;;;7.70;4.30;;;2.80;99.90;;;;;;5071272;28;20482;-55
2021/01/08 11:33:13;;;;;;;7.73;4.20;;;2.90;99.90;;;;;;5070968;28;20492;-54
2021/01/08 11:35:39;;;;;;;7.73;3.90;;;2.80;99.90;;;;;;5071444;28;20443;-54
2021/01/08 11:38:06;;;;;;;7.10;3.50;;;2.90;99.90;;;;;;5070814;28;21058;-54
2021/01/08 11:40:32;;;;;;;7.20;3.40;;;3.00;99.90;;;;;;5071075;28;20948;-55
2021/01/08 11:42:59;;;;;;;8.27;3.50;;;3.00;99.90;;;;;;5071118;28;20447;-54
2021/01/08 11:45:25;;;;;;;6.07;3.47;;;3.00;99.90;;;;;;5071206;28;20450;-54
2021/01/08 11:47:52;;;;;;;5.27;3.40;;;3.00;99.90;;;;;;5066758;28;20471;-55
2021/01/08 11:50:19;;;;;;;6.00;3.47;;;3.10;99.90;;;;;;5070652;28;20482;-54
2021/01/08 11:52:45;;;;;;;4.70;2.77;;;3.10;99.90;;;;;;5070583;28;20450;-55
2021/01/08 11:55:12;;;;;;;7.20;3.20;;;3.20;99.90;;;;;;5070219;28;20804;-54
2021/01/08 11:57:39;;;;;;;7.10;3.60;;;3.30;99.90;;;;;;5070979;28;20524;-55
2021/01/08 12:00:07;;;;;;;5.93;3.50;;;3.30;99.90;;;;;;5070481;28;20442;-54
2021/01/08 12:02:34;;;;;;;6.63;4.27;;;3.40;99.90;;;;;;5070711;28;20571;-55
2021/01/08 12:05:00;;;;;;;11.70;4.30;;;3.40;99.90;;;;;;5070544;28;20454;-54
2021/01/08 12:07:28;;;;;;;4.50;3.43;;;3.40;99.90;;;;;;5070048;28;20482;-54
2021/01/08 12:09:56;;;;;;;6.20;3.20;;;3.30;99.90;;;;;;5070178;28;20482;-54
2021/01/08 12:12:22;;;;;;;6.93;4.00;;;3.10;99.90;;;;;;5070520;28;20450;-54
2021/01/08 12:14:49;;;;;;;5.33;3.37;;;3.10;99.90;;;;;;5070597;28;20450;-54
2021/01/08 12:17:15;;;;;;;3.60;2.83;;;3.40;99.90;;;;;;5070375;28;20482;-54
2021/01/08 12:19:42;;;;;;;6.20;3.87;;;3.40;99.90;;;;;;5070224;28;20809;-54
2021/01/08 12:22:10;;;;;;;6.57;3.67;;;3.20;99.90;;;;;;5070343;28;20982;-55
2021/01/08 12:24:38;;;;;;;3.53;2.57;;;3.20;99.90;;;;;;5069433;28;20485;-55
2021/01/08 12:27:04;;;;;;;6.10;3.67;;;3.20;99.90;;;;;;5070745;28;20471;-54
2021/01/08 12:29:33;;;;;;;7.67;3.17;;;3.40;99.90;;;;;;5070168;28;20527;-54
2021/01/08 12:32:01;;;;;;;7.00;3.90;;;3.60;99.90;;;;;;5070899;28;20495;-54
2021/01/08 12:34:28;;;;;;;5.10;3.30;;;3.40;99.90;;;;;;5070499;28;20451;-54
2021/01/08 12:36:55;;;;;;;5.50;3.37;;;3.40;99.90;;;;;;5070439;28;20462;-54
2021/01/08 12:39:21;;;;;;;6.43;3.60;;;3.30;99.90;;;;;;5070526;28;20801;-55
2021/01/08 12:41:49;;;;;;;6.53;3.47;;;3.20;99.90;;;;;;5070606;28;20443;-55
2021/01/08 12:44:16;;;;;;;5.33;3.40;;;3.20;99.90;;;;;;5070599;28;20991;-55
2021/01/08 12:46:42;;;;;;;6.10;3.57;;;3.30;99.90;;;;;;5070311;28;20451;-55
2021/01/08 12:49:11;;;;;;;6.57;3.60;;;3.40;99.90;;;;;;5070228;28;20447;-54
2021/01/08 12:51:38;;;;;;;7.50;3.70;;;3.50;99.90;;;;;;5070243;28;20549;-54
2021/01/08 12:54:05;;;;;;;5.53;3.77;;;3.50;99.90;;;;;;5070681;28;20447;-54
2021/01/08 12:56:32;;;;;;;7.83;3.93;;;3.50;99.90;;;;;;5070019;28;20508;-54